createdAt,value
2017-01-22T00:04:56.792Z,1017.8
2017-01-22T00:15:09.507Z,1017.6
2017-01-22T00:25:22.206Z,1017.7
2017-01-22T00:35:34.949Z,1017.7
2017-01-22T00:45:47.654Z,1017.7
2017-01-22T00:56:00.337Z,1017.6
2017-01-22T01:06:13.072Z,1017.6
2017-01-22T01:16:25.864Z,1017.6
2017-01-22T01:26:38.684Z,1017.6
2017-01-22T01:36:51.522Z,1017.6
2017-01-22T01:47:04.167Z,1017.5
2017-01-22T01:57:16.837Z,1017.6
2017-01-22T02:07:29.591Z,1017.5
2017-01-22T02:17:42.367Z,1017.4
2017-01-22T02:27:55.073Z,1017.3
2017-01-22T02:38:07.846Z,1017.2
2017-01-22T02:48:20.750Z,1017.2
2017-01-22T02:58:33.592Z,1017.3
2017-01-22T03:08:46.452Z,1017.1
2017-01-22T03:18:59.457Z,1017.2
2017-01-22T03:29:12.364Z,1017.1
2017-01-22T03:39:25.365Z,1017.2
2017-01-22T03:49:38.366Z,1017.1
2017-01-22T03:59:51.420Z,1017.1
2017-01-22T04:10:04.510Z,1016.9
2017-01-22T04:20:17.812Z,1017
2017-01-22T04:30:30.699Z,1017
2017-01-22T04:40:43.725Z,1017.1
2017-01-22T04:50:56.736Z,1016.8
2017-01-22T05:01:09.794Z,1016.8
2017-01-22T05:11:22.773Z,1016.8
2017-01-22T05:21:35.798Z,1016.8
2017-01-22T05:31:48.910Z,1016.7
2017-01-22T05:42:02.105Z,1016.8
2017-01-22T05:52:15.198Z,1016.8
2017-01-22T06:02:28.308Z,1016.8
2017-01-22T06:12:41.422Z,1016.8
2017-01-22T06:22:54.617Z,1016.8
2017-01-22T06:33:07.748Z,1016.9
2017-01-22T06:43:20.888Z,1016.9
2017-01-22T06:53:34.129Z,1016.9
2017-01-22T07:03:47.390Z,1017
2017-01-22T07:14:00.603Z,1016.9
2017-01-22T07:24:13.707Z,1016.9
2017-01-22T07:34:26.690Z,1016.9
2017-01-22T07:44:39.543Z,1016.9
2017-01-22T07:54:52.203Z,1017.1
2017-01-22T08:05:04.602Z,1017
2017-01-22T08:15:16.697Z,1017.1
2017-01-22T08:25:28.624Z,1017
2017-01-22T08:35:40.395Z,1017.1
2017-01-22T08:45:52.080Z,1017.1
2017-01-22T08:56:03.544Z,1017.2
2017-01-22T09:06:14.825Z,1017.2
2017-01-22T09:16:25.952Z,1017.2
2017-01-22T09:26:36.881Z,1017.2
2017-01-22T09:36:47.717Z,1017.2
2017-01-22T09:46:58.357Z,1017.2
2017-01-22T09:57:08.844Z,1017.2
2017-01-22T10:07:19.181Z,1017.2
2017-01-22T10:17:29.424Z,1017.2
2017-01-22T10:27:39.631Z,1017
2017-01-22T10:37:49.811Z,1017
2017-01-22T10:47:59.992Z,1016.8
2017-01-22T10:58:10.193Z,1017
2017-01-22T11:08:20.430Z,1017.3
2017-01-22T11:18:30.681Z,1017.1
2017-01-22T11:28:40.924Z,1016.8
2017-01-22T11:38:51.168Z,1016.6
2017-01-22T11:49:01.337Z,1016.6
2017-01-22T11:59:11.492Z,1016.4
2017-01-22T12:09:21.760Z,1016.2
2017-01-22T12:19:32.003Z,1016.1
2017-01-22T12:29:42.270Z,1016.1
2017-01-22T12:39:52.475Z,1016
2017-01-22T12:50:02.574Z,1015.8
2017-01-22T13:00:12.650Z,1015.8
2017-01-22T13:10:22.628Z,1015.7
2017-01-22T13:20:32.546Z,1015.7
2017-01-22T13:30:42.375Z,1015.9
2017-01-22T13:40:52.228Z,1016
2017-01-22T13:51:02.121Z,1016
2017-01-22T14:01:12.111Z,1015.9
2017-01-22T14:11:21.856Z,1015.7
2017-01-22T14:21:31.796Z,1015.8
2017-01-22T14:31:41.891Z,1015.8
2017-01-22T14:41:52.102Z,1015.7
2017-01-22T14:52:02.384Z,1015.5
2017-01-22T15:02:12.798Z,1015.5
2017-01-22T15:12:23.398Z,1015.5
2017-01-22T15:22:34.101Z,1015.3
2017-01-22T15:32:44.928Z,1015.2
2017-01-22T15:42:56.016Z,1015.3
2017-01-22T15:53:07.474Z,1015.2
2017-01-22T16:03:19.286Z,1015.4
2017-01-22T16:13:31.317Z,1015.3
2017-01-22T16:23:43.427Z,1015.3
2017-01-22T16:33:55.714Z,1015.3
2017-01-22T16:44:08.081Z,1015.4
2017-01-22T16:54:20.538Z,1015.4
2017-01-22T17:04:32.963Z,1015.5
2017-01-22T17:14:45.391Z,1015.5
2017-01-22T17:24:57.801Z,1015.5
2017-01-22T17:35:10.329Z,1015.7
2017-01-22T17:45:22.857Z,1015.7
2017-01-22T17:55:35.501Z,1015.6
2017-01-22T18:05:47.994Z,1015.6
2017-01-22T18:16:00.630Z,1015.6
2017-01-22T18:26:13.250Z,1015.6
2017-01-22T18:36:25.869Z,1015.6
2017-01-22T18:46:38.556Z,1015.7
2017-01-22T18:56:51.278Z,1015.6
2017-01-22T19:07:04.002Z,1015.5
2017-01-22T19:17:16.706Z,1015.6
2017-01-22T19:27:29.535Z,1015.6
2017-01-22T19:37:42.234Z,1015.6
2017-01-22T19:47:54.991Z,1015.5
2017-01-22T19:58:07.673Z,1015.5
2017-01-22T20:08:20.463Z,1015.5
2017-01-22T20:18:33.264Z,1015.5
2017-01-22T20:28:46.075Z,1015.6
2017-01-22T20:38:58.915Z,1015.6
2017-01-22T20:49:11.740Z,1015.5
2017-01-22T20:59:24.654Z,1015.6
2017-01-22T21:09:37.596Z,1015.6
2017-01-22T21:19:50.564Z,1015.5
2017-01-22T21:30:03.556Z,1015.4
2017-01-22T21:40:16.529Z,1015.4
2017-01-22T21:50:29.420Z,1015.5
2017-01-22T22:00:42.311Z,1015.6
2017-01-22T22:10:55.170Z,1015.5
2017-01-22T22:21:08.118Z,1015.4
2017-01-22T22:31:21.032Z,1015.6
2017-01-22T22:41:33.948Z,1015.6
2017-01-22T22:51:46.852Z,1015.5
2017-01-22T23:01:59.852Z,1015.6
2017-01-22T23:12:12.962Z,1015.6
2017-01-22T23:22:26.122Z,1015.7
2017-01-22T23:32:39.304Z,1015.6
2017-01-22T23:42:52.469Z,1015.8
2017-01-22T23:53:05.602Z,1015.8
